createdAt,value
2017-05-27T00:03:38.613Z,57.34
2017-05-27T00:06:02.777Z,58.11
2017-05-27T00:08:26.881Z,58.49
2017-05-27T00:10:50.973Z,59.43
2017-05-27T00:13:15.071Z,58.56
2017-05-27T00:15:39.159Z,58.4
2017-05-27T00:18:03.243Z,58.56
2017-05-27T00:20:27.342Z,58.47
2017-05-27T00:22:43.001Z,59.43
2017-05-27T00:25:07.074Z,59.69
2017-05-27T00:27:31.131Z,60.42
2017-05-27T00:29:55.205Z,60.27
2017-05-27T00:32:19.264Z,60.72
2017-05-27T00:34:43.311Z,60.27
2017-05-27T00:36:58.928Z,60.27
2017-05-27T00:39:22.992Z,59.78
2017-05-27T00:41:30.166Z,60.46
2017-05-27T00:43:54.158Z,59.88
2017-05-27T00:46:18.222Z,59.97
2017-05-27T00:48:42.275Z,60.46
2017-05-27T00:51:06.334Z,59.78
2017-05-27T00:53:30.356Z,60.52
2017-05-27T00:55:54.477Z,59.78
2017-05-27T00:58:18.516Z,59.23
2017-05-27T01:00:42.568Z,59.59
2017-05-27T01:02:58.196Z,60.46
2017-05-27T01:05:22.194Z,59.97
2017-05-27T01:07:46.273Z,59.72
2017-05-27T01:10:10.262Z,59.88
2017-05-27T01:12:25.813Z,60.17
2017-05-27T01:14:49.843Z,60.65
2017-05-27T01:17:05.419Z,60.62
2017-05-27T01:19:12.583Z,60.27
2017-05-27T01:21:36.566Z,59.59
2017-05-27T01:23:37.938Z,60.07
2017-05-27T01:26:02.015Z,59.97
2017-05-27T01:28:26.068Z,61.68
2017-05-27T01:30:50.099Z,61.1
2017-05-27T01:33:14.128Z,61.1
2017-05-27T01:35:38.142Z,61.97
2017-05-27T01:38:02.163Z,61.68
2017-05-27T01:40:26.112Z,62.26
2017-05-27T01:42:50.119Z,62.32
2017-05-27T01:44:57.214Z,62.51
2017-05-27T01:47:21.212Z,62.61
2017-05-27T01:49:36.802Z,62.23
2017-05-27T01:52:00.881Z,62.35
2017-05-27T01:54:24.958Z,62.41
2017-05-27T01:56:49.042Z,62.8
2017-05-27T01:59:13.028Z,63.28
2017-05-27T02:01:37.105Z,62.99
2017-05-27T02:04:01.220Z,62.23
2017-05-27T02:07:52.706Z,62.51
2017-05-27T02:10:16.802Z,62.8
2017-05-27T02:12:32.386Z,61.94
2017-05-27T02:14:56.368Z,62.51
2017-05-27T02:17:20.438Z,62.13
2017-05-27T02:19:36.102Z,62.71
2017-05-27T02:22:00.118Z,62.13
2017-05-27T02:24:24.196Z,63.09
2017-05-27T02:26:48.279Z,62.51
2017-05-27T02:29:12.360Z,62.8
2017-05-27T02:31:36.338Z,63.18
2017-05-27T02:34:00.420Z,63.38
2017-05-27T02:36:16.002Z,62.99
2017-05-27T02:38:39.980Z,63.18
2017-05-27T02:41:04.069Z,62.9
2017-05-27T02:43:28.142Z,62.99
2017-05-27T02:45:52.237Z,62.23
2017-05-27T02:48:07.888Z,63.25
2017-05-27T02:50:31.897Z,62.99
2017-05-27T02:52:55.881Z,63.83
2017-05-27T02:55:19.851Z,63.48
2017-05-27T02:57:35.437Z,63.09
2017-05-27T02:59:59.517Z,63.38
2017-05-27T03:02:00.987Z,63.64
2017-05-27T03:04:24.993Z,64.02
2017-05-27T03:06:40.500Z,63.92
2017-05-27T03:09:04.506Z,64.12
2017-05-27T03:11:28.488Z,64.5
2017-05-27T03:13:52.462Z,64.69
2017-05-27T03:16:16.447Z,65.43
2017-05-27T03:18:40.365Z,66.55
2017-05-27T03:20:55.901Z,66
2017-05-27T03:23:11.480Z,65.72
2017-05-27T03:25:35.465Z,66.36
2017-05-27T03:27:36.799Z,65.91
2017-05-27T03:29:46.626Z,66.36
2017-05-27T03:31:56.482Z,65.72
2017-05-27T03:34:20.397Z,65.72
2017-05-27T03:36:44.323Z,65.14
2017-05-27T03:39:08.345Z,65.78
2017-05-27T03:41:23.931Z,65.53
2017-05-27T03:43:47.907Z,64.85
2017-05-27T03:46:03.473Z,64.85
2017-05-27T03:48:27.468Z,65.05
2017-05-27T03:50:51.452Z,65.4
2017-05-27T03:53:15.430Z,65.49
2017-05-27T03:55:39.411Z,66.36
2017-05-27T03:58:03.388Z,66.26
2017-05-27T04:00:27.377Z,66.55
2017-05-27T04:02:51.354Z,65.88
2017-05-27T04:05:15.333Z,65.3
2017-05-27T04:07:30.879Z,65.78
2017-05-27T04:09:46.457Z,64.66
2017-05-27T04:12:02.039Z,64.66
2017-05-27T04:14:26.058Z,65.3
2017-05-27T04:16:50.037Z,64.92
2017-05-27T04:19:14.017Z,63.99
2017-05-27T04:21:37.991Z,64.09
2017-05-27T04:24:01.976Z,62.03
2017-05-27T04:26:25.963Z,52.59
2017-05-27T04:28:41.608Z,45.2
2017-05-27T04:31:05.841Z,45.95
2017-05-27T04:33:30.242Z,46.34
2017-05-27T04:35:54.750Z,40.56
2017-05-27T04:38:19.355Z,35.42
2017-05-27T04:40:44.147Z,31.23
2017-05-27T04:43:09.066Z,29.7
2017-05-27T04:45:34.172Z,27.66
2017-05-27T04:47:59.399Z,32.7
2017-05-27T04:50:24.708Z,27.87
2017-05-27T04:52:50.127Z,28.64
2017-05-27T04:55:15.651Z,25.38
2017-05-27T04:57:26.046Z,20.59
2017-05-27T04:59:51.740Z,19.71
2017-05-27T05:02:17.575Z,21.73
2017-05-27T05:04:19.399Z,23.14
2017-05-27T05:06:36.752Z,22.11
2017-05-27T05:09:02.787Z,20.09
2017-05-27T05:11:28.819Z,16.64
2017-05-27T05:13:54.950Z,19.59
2017-05-27T05:16:21.086Z,15.37
2017-05-27T05:18:47.323Z,13.43
2017-05-27T05:21:13.657Z,12.84
2017-05-27T05:23:40.101Z,15.45
2017-05-27T05:26:06.540Z,12.64
2017-05-27T05:28:33.092Z,10.99
2017-05-27T05:30:59.634Z,8.26
2017-05-27T05:33:17.791Z,10.89
2017-05-27T05:35:44.633Z,8.04
2017-05-27T05:38:11.487Z,8.64
2017-05-27T05:40:38.334Z,6.96
2017-05-27T05:42:56.683Z,5.97
2017-05-27T05:45:23.741Z,5.97
2017-05-27T05:47:50.804Z,5.66
2017-05-27T05:50:17.948Z,4.86
2017-05-27T05:52:45.113Z,5.55
2017-05-27T05:55:12.265Z,7.73
2017-05-27T05:57:39.522Z,7.34
2017-05-27T06:00:06.780Z,6.84
2017-05-27T06:02:34.031Z,7.34
2017-05-27T06:04:44.089Z,7.63
2017-05-27T06:07:11.352Z,4.27
2017-05-27T06:09:30.083Z,3.77
2017-05-27T06:11:57.580Z,2.36
2017-05-27T06:14:16.397Z,2.66
2017-05-27T06:16:44.014Z,3.66
2017-05-27T06:19:03.072Z,1.84
2017-05-27T06:20:56.704Z,3.46
2017-05-27T06:22:58.928Z,3.06
2017-05-27T06:25:26.688Z,3.26
2017-05-27T06:27:54.450Z,4.36
2017-05-27T06:30:22.126Z,4.16
2017-05-27T06:32:49.879Z,2.55
2017-05-27T06:35:17.644Z,1.54
2017-05-27T06:37:36.832Z,3.26
2017-05-27T06:39:55.997Z,7.32
2017-05-27T06:42:23.967Z,8.7
2017-05-27T06:44:51.944Z,10.47
2017-05-27T06:47:11.213Z,10.26
2017-05-27T06:49:39.075Z,9.68
2017-05-27T06:52:06.730Z,13.28
2017-05-27T06:54:34.284Z,14.75
2017-05-27T06:57:02.540Z,15.61
2017-05-27T06:59:29.589Z,14.46
2017-05-27T07:01:31.633Z,15.04
2017-05-27T07:03:58.375Z,16.96
2017-05-27T07:06:24.914Z,18.6
2017-05-27T07:08:51.241Z,20.22
2017-05-27T07:11:17.457Z,18.79
2017-05-27T07:13:43.609Z,21.39
2017-05-27T07:16:09.606Z,20.25
2017-05-27T07:18:35.524Z,18.51
2017-05-27T07:20:52.864Z,20.21
2017-05-27T07:23:18.673Z,18.7
2017-05-27T07:25:29.079Z,23.2
2017-05-27T07:27:46.249Z,22.13
2017-05-27T07:30:11.858Z,24.54
2017-05-27T07:32:37.473Z,20.91
2017-05-27T07:34:47.960Z,19.77
2017-05-27T07:37:13.564Z,19.2
2017-05-27T07:39:30.505Z,18.81
2017-05-27T07:41:56.089Z,19.11
2017-05-27T07:44:21.703Z,21.96
2017-05-27T07:46:23.475Z,20.14
2017-05-27T07:48:49.181Z,17.94
2017-05-27T07:51:14.922Z,17.07
2017-05-27T07:53:40.725Z,19.38
2017-05-27T07:56:06.557Z,18.23
2017-05-27T07:58:32.386Z,16.68
2017-05-27T08:00:58.207Z,17.38
2017-05-27T08:03:24.030Z,17.37
2017-05-27T08:05:41.315Z,17.45
2017-05-27T08:08:07.181Z,19.3
2017-05-27T08:10:32.930Z,18.43
2017-05-27T08:12:50.169Z,17.07
2017-05-27T08:15:07.445Z,16.49
2017-05-27T08:17:33.370Z,16.69
2017-05-27T08:19:59.292Z,16.66
2017-05-27T08:22:25.218Z,15.17
2017-05-27T08:24:51.151Z,15.6
2017-05-27T08:27:17.075Z,15.91
2017-05-27T08:29:43.005Z,15.04
2017-05-27T08:32:08.915Z,16.31
2017-05-27T08:34:34.852Z,15.53
2017-05-27T08:37:00.666Z,15.81
2017-05-27T08:39:17.999Z,17.63
2017-05-27T08:41:35.310Z,18.04
2017-05-27T08:43:37.133Z,16.01
2017-05-27T08:45:47.567Z,16.4
2017-05-27T08:48:13.459Z,18.62
2017-05-27T08:50:39.286Z,17.83
2017-05-27T08:53:05.106Z,19.09
2017-05-27T08:55:30.915Z,18.33
2017-05-27T08:57:56.640Z,19.49
2017-05-27T09:00:22.362Z,17.96
2017-05-27T09:02:48.086Z,17.18
2017-05-27T09:05:13.804Z,17.85
2017-05-27T09:07:39.523Z,19.02
2017-05-27T09:09:56.715Z,18.33
2017-05-27T09:12:22.474Z,18.52
2017-05-27T09:14:48.186Z,19.76
2017-05-27T09:17:13.890Z,20.06
2017-05-27T09:19:39.620Z,20.06
2017-05-27T09:22:05.340Z,19.59
2017-05-27T09:24:30.968Z,19.11
2017-05-27T09:26:56.676Z,18.99
2017-05-27T09:29:13.802Z,17.66
2017-05-27T09:31:39.519Z,16.89
2017-05-27T09:34:05.245Z,17.29
2017-05-27T09:36:30.966Z,17.18
2017-05-27T09:38:48.168Z,17.95
2017-05-27T09:41:13.913Z,16.6
2017-05-27T09:43:39.573Z,16.6
2017-05-27T09:46:05.349Z,17.28
2017-05-27T09:48:31.066Z,16.6
2017-05-27T09:50:56.798Z,17.64
2017-05-27T09:53:22.507Z,16.02
2017-05-27T09:55:48.229Z,16.49
2017-05-27T09:58:13.948Z,17.24
2017-05-27T10:00:39.664Z,18.7
2017-05-27T10:03:05.384Z,18.21
2017-05-27T10:05:31.004Z,19.67
2017-05-27T10:07:56.607Z,18.3
2017-05-27T10:10:22.237Z,18.98
2017-05-27T10:12:47.861Z,18.48
2017-05-27T10:14:58.249Z,19.92
2017-05-27T10:17:15.309Z,20.31
2017-05-27T10:19:40.851Z,20.61
2017-05-27T10:21:42.578Z,20.4
2017-05-27T10:23:59.624Z,19.83
2017-05-27T10:26:25.029Z,20.69
2017-05-27T10:28:50.444Z,21.66
2017-05-27T10:31:07.352Z,20.41
2017-05-27T10:33:32.771Z,20.21
2017-05-27T10:35:58.176Z,19.14
2017-05-27T10:38:23.490Z,20.01
2017-05-27T10:40:50.014Z,19.53
2017-05-27T10:43:15.386Z,21.15
2017-05-27T10:45:40.649Z,20.48
2017-05-27T10:48:06.901Z,20.38
2017-05-27T10:50:32.212Z,20.19
2017-05-27T10:52:49.014Z,19.62
2017-05-27T10:55:14.319Z,19.99
2017-05-27T10:57:39.613Z,20.37
2017-05-27T11:00:04.923Z,19.8
2017-05-27T11:02:30.242Z,19.42
2017-05-27T11:04:55.555Z,20.94
2017-05-27T11:07:12.360Z,20.36
2017-05-27T11:09:37.571Z,20.17
2017-05-27T11:11:54.278Z,20.36
2017-05-27T11:14:19.487Z,20.17
2017-05-27T11:16:44.708Z,20.45
2017-05-27T11:19:09.899Z,19.96
2017-05-27T11:21:35.110Z,20.07
2017-05-27T11:23:46.165Z,19.88
2017-05-27T11:26:11.389Z,19.98
2017-05-27T11:28:21.599Z,19.59
2017-05-27T11:30:38.358Z,20.07
2017-05-27T11:33:03.601Z,19.59
2017-05-27T11:35:28.778Z,20.56
2017-05-27T11:37:53.985Z,19.98
2017-05-27T11:40:10.695Z,19.96
2017-05-27T11:42:35.904Z,20.54
2017-05-27T11:44:52.611Z,21.24
2017-05-27T11:47:17.819Z,22.22
2017-05-27T11:49:34.453Z,21.94
2017-05-27T11:51:59.637Z,22.51
2017-05-27T11:54:24.861Z,23.28
2017-05-27T11:56:50.060Z,22.02
2017-05-27T11:59:15.258Z,22.24
2017-05-27T12:01:40.396Z,21.83
2017-05-27T12:04:05.577Z,22.02
2017-05-27T12:06:30.809Z,22.12
2017-05-27T12:08:55.985Z,22.7
2017-05-27T12:11:21.211Z,22.11
2017-05-27T12:13:46.421Z,21.84
2017-05-27T12:16:11.511Z,22.59
2017-05-27T12:18:36.739Z,21.75
2017-05-27T12:21:01.945Z,21.15
2017-05-27T12:23:27.156Z,21.16
2017-05-27T12:27:28.255Z,22.23
2017-05-27T12:29:30.505Z,21.17
2017-05-27T12:31:55.780Z,21.06
2017-05-27T12:34:12.589Z,21.06
2017-05-27T12:36:37.794Z,21.15
2017-05-27T12:39:02.999Z,22.22
2017-05-27T12:41:28.200Z,22.02
2017-05-27T12:43:44.924Z,21.92
2017-05-27T12:46:01.632Z,21.26
2017-05-27T12:48:03.281Z,20.28
2017-05-27T12:50:13.496Z,22.02
2017-05-27T12:52:38.653Z,22.12
2017-05-27T12:55:03.864Z,21.36
2017-05-27T12:57:29.075Z,20.39
2017-05-27T12:59:54.279Z,22.02
2017-05-27T13:05:41.252Z,20.39
2017-05-27T13:08:06.418Z,20.97
2017-05-27T13:10:31.640Z,21.35
2017-05-27T13:12:56.845Z,21.06
2017-05-27T13:15:22.047Z,21.34
2017-05-27T13:17:47.261Z,21.25
2017-05-27T13:20:03.970Z,21.64
2017-05-27T13:22:29.183Z,21.15
2017-05-27T13:24:54.384Z,21.52
2017-05-27T13:27:19.592Z,22.21
2017-05-27T13:29:44.799Z,22.02
2017-05-27T13:32:09.908Z,21.16
2017-05-27T13:34:35.127Z,21.14
2017-05-27T13:36:51.825Z,21.24
2017-05-27T13:39:17.033Z,20.76
2017-05-27T13:41:27.318Z,20.09
2017-05-27T13:43:43.993Z,20.36
2017-05-27T13:46:09.201Z,19.99
2017-05-27T13:48:34.428Z,20.38
2017-05-27T13:50:59.626Z,20.38
2017-05-27T13:53:01.281Z,19.99
2017-05-27T13:55:26.503Z,19.99
2017-05-27T13:57:28.143Z,19.8
2017-05-27T13:59:44.855Z,20.19
2017-05-27T14:01:55.915Z,20.19
2017-05-27T14:04:21.140Z,20.37
2017-05-27T14:06:46.348Z,20.48
2017-05-27T14:09:11.574Z,20.19
2017-05-27T14:11:36.760Z,19.53
2017-05-27T14:14:01.977Z,18.75
2017-05-27T14:16:27.184Z,19.14
2017-05-27T14:18:52.396Z,19.41
2017-05-27T14:21:17.596Z,19.49
2017-05-27T14:23:42.843Z,19.69
2017-05-27T14:26:08.121Z,19.51
2017-05-27T14:28:33.336Z,19.41
2017-05-27T14:30:50.040Z,19.32
2017-05-27T14:33:15.353Z,19.98
2017-05-27T14:35:41.592Z,19.49
2017-05-27T14:37:43.254Z,19.68
2017-05-27T14:40:08.556Z,19.79
2017-05-27T14:42:33.765Z,19.88
2017-05-27T14:45:00.003Z,19.78
2017-05-27T14:47:25.195Z,19.49
2017-05-27T14:49:27.429Z,19.98
2017-05-27T14:51:52.690Z,19.69
2017-05-27T14:54:17.897Z,19.4
2017-05-27T14:56:43.140Z,19.59
2017-05-27T14:58:59.821Z,19.1
2017-05-27T15:01:25.143Z,19.12
2017-05-27T15:03:50.327Z,19.3
2017-05-27T15:06:15.521Z,19.59
2017-05-27T15:08:40.742Z,19.49
2017-05-27T15:11:05.973Z,19.39
2017-05-27T15:13:31.164Z,19.59
2017-05-27T15:15:56.371Z,19.69
2017-05-27T15:18:21.476Z,19.2
2017-05-27T15:20:38.242Z,20.07
2017-05-27T15:23:03.385Z,19.59
2017-05-27T15:25:29.697Z,19.68
2017-05-27T15:27:32.735Z,19.4
2017-05-27T15:29:58.020Z,19.29
2017-05-27T15:32:23.233Z,19.29
2017-05-27T15:34:48.344Z,19.2
2017-05-27T15:37:13.541Z,19.1
2017-05-27T15:39:38.757Z,18.71
2017-05-27T15:42:03.964Z,19.01
2017-05-27T15:44:29.179Z,19.96
2017-05-27T15:46:54.377Z,19.49
2017-05-27T15:49:10.976Z,19.59
2017-05-27T15:51:36.197Z,19.2
2017-05-27T15:53:52.906Z,19.18
2017-05-27T15:56:18.003Z,19.38
2017-05-27T15:58:34.626Z,19.68
2017-05-27T16:00:59.821Z,19
2017-05-27T16:03:25.046Z,19.29
2017-05-27T16:05:50.751Z,19.49
2017-05-27T16:08:07.462Z,19.2
2017-05-27T16:10:32.547Z,19.59
2017-05-27T16:12:49.285Z,19.78
2017-05-27T16:15:14.490Z,20.07
2017-05-27T16:17:39.697Z,19.48
2017-05-27T16:20:04.911Z,19.48
2017-05-27T16:22:30.111Z,19.29
2017-05-27T16:24:46.822Z,19.77
2017-05-27T16:27:12.033Z,19.38
2017-05-27T16:29:37.238Z,19.48
2017-05-27T16:31:53.954Z,19.57
2017-05-27T16:34:10.638Z,19.87
2017-05-27T16:36:35.760Z,19.49
2017-05-27T16:39:00.969Z,19.57
2017-05-27T16:41:26.177Z,20.17
2017-05-27T16:43:51.390Z,19.98
2017-05-27T16:46:16.593Z,19.59
2017-05-27T16:48:41.724Z,19.96
2017-05-27T16:51:06.907Z,19.96
2017-05-27T16:53:34.622Z,19.98
2017-05-27T16:55:59.678Z,19.59
2017-05-27T16:58:24.787Z,19.78
2017-05-27T17:00:50.002Z,19.49
2017-05-27T17:03:06.709Z,20.07
2017-05-27T17:05:23.408Z,20.56
2017-05-27T17:07:40.116Z,19.96
2017-05-27T17:10:05.232Z,19.77
2017-05-27T17:12:30.439Z,20.36
2017-05-27T17:14:47.029Z,21.03
2017-05-27T17:17:12.143Z,20.84
2017-05-27T17:19:37.350Z,20.84
2017-05-27T17:22:02.364Z,21.13
2017-05-27T17:24:27.470Z,20.94
2017-05-27T17:26:52.590Z,20.54
2017-05-27T17:29:17.677Z,20.93
2017-05-27T17:31:42.791Z,21.12
2017-05-27T17:34:07.892Z,21.03
2017-05-27T17:36:32.992Z,21.12
2017-05-27T17:38:58.112Z,21.32
2017-05-27T17:41:23.217Z,22
2017-05-27T17:43:39.809Z,22.21
2017-05-27T17:46:04.819Z,22.39
2017-05-27T17:48:29.821Z,22.31
2017-05-27T17:50:54.926Z,24.05
2017-05-27T17:53:19.946Z,24.05
2017-05-27T17:55:22.048Z,25.12
2017-05-27T17:57:47.105Z,25.23
2017-05-27T18:00:12.105Z,25.61
2017-05-27T18:02:28.709Z,26.59
2017-05-27T18:04:53.713Z,26.68
2017-05-27T18:07:18.731Z,26.68
2017-05-27T18:09:20.375Z,26.87
2017-05-27T18:11:45.476Z,26.67
2017-05-27T18:14:10.482Z,27.94
2017-05-27T18:16:26.988Z,28.13
2017-05-27T18:18:51.977Z,28.71
2017-05-27T18:21:16.987Z,28.81
2017-05-27T18:23:42.102Z,29.47
2017-05-27T18:26:07.102Z,29.49
2017-05-27T18:28:32.100Z,29.77
2017-05-27T18:30:57.114Z,30.35
2017-05-27T18:33:13.538Z,30.55
2017-05-27T18:35:38.511Z,30.94
2017-05-27T18:38:03.540Z,31.72
2017-05-27T18:40:28.532Z,30.76
2017-05-27T18:42:53.526Z,31.23
2017-05-27T18:45:18.446Z,32.01
2017-05-27T18:47:43.434Z,31.93
2017-05-27T18:50:08.417Z,31.92
2017-05-27T18:52:33.431Z,31.82
2017-05-27T18:54:58.318Z,31.82
2017-05-27T18:56:57.757Z,32.21
2017-05-27T18:59:22.638Z,32.19
2017-05-27T19:01:47.557Z,32.87
2017-05-27T19:04:12.450Z,33.07
2017-05-27T19:06:37.349Z,33.07
2017-05-27T19:09:02.258Z,34.03
2017-05-27T19:11:18.666Z,34.05
2017-05-27T19:13:43.570Z,34.34
2017-05-27T19:16:08.446Z,34.42
2017-05-27T19:18:33.348Z,34.81
2017-05-27T19:20:34.923Z,35.2
2017-05-27T19:22:59.911Z,34.99
2017-05-27T19:25:24.811Z,35.28
2017-05-27T19:27:49.726Z,36.16
2017-05-27T19:30:06.103Z,35.55
2017-05-27T19:32:30.898Z,36.9
2017-05-27T19:34:55.706Z,36.79
2017-05-27T19:37:20.509Z,37.37
2017-05-27T19:39:36.824Z,38.03
2017-05-27T19:41:46.979Z,37.54
2017-05-27T19:43:48.538Z,38.42
2017-05-27T19:46:13.414Z,38.42
2017-05-27T19:48:38.214Z,38.03
2017-05-27T19:56:25.158Z,39.08
2017-05-27T20:00:25.595Z,39.08
2017-05-27T20:02:41.839Z,39.37
2017-05-27T20:05:06.506Z,39.37
2017-05-27T20:07:08.298Z,39.69
2017-05-27T20:09:24.591Z,39.2
2017-05-27T20:11:49.254Z,39.49
2017-05-27T20:14:05.548Z,39.2
2017-05-27T20:16:30.351Z,39.1
2017-05-27T20:18:55.082Z,39.39
2017-05-27T20:21:19.851Z,39.29
2017-05-27T20:23:21.383Z,39.29
2017-05-27T20:25:46.197Z,39.69
2017-05-27T20:27:47.745Z,39.86
2017-05-27T20:30:04.058Z,39.65
2017-05-27T20:32:28.757Z,40.52
2017-05-27T20:34:53.449Z,40.42
2017-05-27T20:37:09.678Z,40.72
2017-05-27T20:39:34.678Z,40.79
2017-05-27T20:41:59.242Z,41.38
2017-05-27T20:44:23.935Z,41.18
2017-05-27T20:46:40.144Z,42.13
2017-05-27T20:48:41.724Z,42.03
2017-05-27T20:51:08.378Z,41.67
2017-05-27T20:53:24.627Z,42.33
2017-05-27T20:55:49.322Z,42.23
2017-05-27T20:58:05.526Z,41.84
2017-05-27T21:00:31.240Z,42.23
2017-05-27T21:02:55.942Z,42.69
2017-05-27T21:05:20.638Z,42.4
2017-05-27T21:07:45.222Z,42.33
2017-05-27T21:09:46.747Z,41.94
2017-05-27T21:11:48.213Z,42.33
2017-05-27T21:14:12.934Z,42.61
2017-05-27T21:16:29.119Z,42.23
2017-05-27T21:18:53.709Z,42.69
2017-05-27T21:21:09.807Z,42.89
2017-05-27T21:23:34.407Z,42.5
2017-05-27T21:25:59.307Z,43.08
2017-05-27T21:28:23.903Z,43.16
2017-05-27T21:30:25.911Z,43.06
2017-05-27T21:32:50.566Z,43.64
2017-05-27T21:35:15.158Z,42.57
2017-05-27T21:37:31.282Z,43.35
2017-05-27T21:39:55.840Z,43.43
2017-05-27T21:42:20.432Z,43.43
2017-05-27T21:44:44.932Z,44.18
2017-05-27T21:47:01.016Z,43.72
2017-05-27T21:50:52.995Z,43.43
2017-05-27T21:53:17.562Z,43.79
2017-05-27T21:55:42.154Z,43.87
2017-05-27T21:58:06.644Z,43.41
2017-05-27T22:00:31.132Z,43.41
2017-05-27T22:02:47.230Z,42.54
2017-05-27T22:05:11.826Z,43.6
2017-05-27T22:07:36.318Z,43.6
2017-05-27T22:10:00.801Z,43.02
2017-05-27T22:12:25.296Z,42.34
2017-05-27T22:14:26.779Z,42.63
2017-05-27T22:16:51.349Z,42.34
2017-05-27T22:19:15.822Z,42.82
2017-05-27T22:21:40.334Z,42.34
2017-05-27T22:24:04.814Z,42.92
2017-05-27T22:26:29.306Z,43.68
2017-05-27T22:28:53.796Z,44.35
2017-05-27T22:31:18.290Z,44.16
2017-05-27T22:33:42.787Z,44.43
2017-05-27T22:36:07.283Z,44.64
2017-05-27T22:38:31.757Z,44.53
2017-05-27T22:40:47.766Z,45.2
2017-05-27T22:43:12.249Z,45.1
2017-05-27T22:45:22.261Z,44.91
2017-05-27T22:47:46.788Z,44.91
2017-05-27T22:50:11.283Z,44.89
2017-05-27T22:52:27.271Z,45.1
2017-05-27T22:54:51.656Z,44.81
2017-05-27T22:57:16.153Z,44.04
2017-05-27T22:59:32.145Z,44.43
2017-05-27T23:01:56.545Z,43.65
2017-05-27T23:04:20.921Z,43.75
2017-05-27T23:06:22.363Z,44.23
2017-05-27T23:08:46.862Z,43.65
2017-05-27T23:11:11.355Z,43.87
2017-05-27T23:13:18.854Z,44.04
2017-05-27T23:15:20.439Z,44.62
2017-05-27T23:17:44.901Z,44.53
2017-05-27T23:20:09.286Z,44.79
2017-05-27T23:22:33.763Z,44.5
2017-05-27T23:24:58.162Z,43.85
2017-05-27T23:27:22.553Z,44.4
2017-05-27T23:29:46.944Z,44.62
2017-05-27T23:31:57.034Z,43.95
2017-05-27T23:34:21.475Z,43.85
2017-05-27T23:36:45.879Z,43.85
2017-05-27T23:38:53.409Z,43.95
2017-05-27T23:41:17.865Z,43.75
2017-05-27T23:43:42.354Z,44.5
2017-05-27T23:45:49.849Z,44.89
2017-05-27T23:48:14.229Z,44.6
2017-05-27T23:50:38.620Z,44.5
2017-05-27T23:52:40.108Z,44.89
2017-05-27T23:54:41.574Z,44.7
2017-05-27T23:56:57.559Z,44.6
2017-05-27T23:59:21.908Z,44.4
